sensor_id;sensor_type;location;lat;lon;timestamp;P1;durP1;ratioP1;P2;durP2;ratioP2
13731;SDS011;6937;56.096;12.664;2023-09-18T00:01:04;3.47;;;2.83;;
13731;SDS011;6937;56.096;12.664;2023-09-18T00:03:30;6.07;;;3.20;;
13731;SDS011;6937;56.096;12.664;2023-09-18T00:05:56;4.70;;;2.92;;
13731;SDS011;6937;56.096;12.664;2023-09-18T00:08:21;3.50;;;3.20;;
13731;SDS011;6937;56.096;12.664;2023-09-18T00:10:51;5.80;;;3.00;;
13731;SDS011;6937;56.096;12.664;2023-09-18T00:13:18;5.38;;;3.30;;
13731;SDS011;6937;56.096;12.664;2023-09-18T00:15:44;3.63;;;3.05;;
13731;SDS011;6937;56.096;12.664;2023-09-18T00:18:14;4.35;;;3.33;;
13731;SDS011;6937;56.096;12.664;2023-09-18T00:20:40;4.10;;;3.13;;
13731;SDS011;6937;56.096;12.664;2023-09-18T00:23:06;4.50;;;3.40;;
13731;SDS011;6937;56.096;12.664;2023-09-18T00:25:31;5.60;;;3.10;;
13731;SDS011;6937;56.096;12.664;2023-09-18T00:27:57;6.13;;;3.08;;
13731;SDS011;6937;56.096;12.664;2023-09-18T00:30:23;5.95;;;3.10;;
13731;SDS011;6937;56.096;12.664;2023-09-18T00:32:48;3.60;;;3.00;;
13731;SDS011;6937;56.096;12.664;2023-09-18T00:35:15;6.50;;;3.15;;
13731;SDS011;6937;56.096;12.664;2023-09-18T00:37:41;3.70;;;2.50;;
13731;SDS011;6937;56.096;12.664;2023-09-18T00:40:08;3.78;;;2.72;;
13731;SDS011;6937;56.096;12.664;2023-09-18T00:42:33;4.55;;;2.78;;
13731;SDS011;6937;56.096;12.664;2023-09-18T00:44:59;5.15;;;3.10;;
13731;SDS011;6937;56.096;12.664;2023-09-18T00:47:24;4.22;;;2.90;;
13731;SDS011;6937;56.096;12.664;2023-09-18T00:49:50;4.93;;;2.90;;
13731;SDS011;6937;56.096;12.664;2023-09-18T00:52:17;4.30;;;2.80;;
13731;SDS011;6937;56.096;12.664;2023-09-18T00:54:45;4.70;;;2.80;;
13731;SDS011;6937;56.096;12.664;2023-09-18T00:57:12;4.68;;;2.60;;
13731;SDS011;6937;56.096;12.664;2023-09-18T00:59:38;3.65;;;2.40;;
13731;SDS011;6937;56.096;12.664;2023-09-18T01:02:04;6.05;;;2.83;;
13731;SDS011;6937;56.096;12.664;2023-09-18T01:04:29;3.33;;;2.50;;
13731;SDS011;6937;56.096;12.664;2023-09-18T01:06:57;3.53;;;2.40;;
13731;SDS011;6937;56.096;12.664;2023-09-18T01:09:24;4.45;;;2.90;;
13731;SDS011;6937;56.096;12.664;2023-09-18T01:11:52;5.55;;;2.90;;
13731;SDS011;6937;56.096;12.664;2023-09-18T01:14:35;3.83;;;2.72;;
13731;SDS011;6937;56.096;12.664;2023-09-18T01:17:05;3.90;;;2.85;;
13731;SDS011;6937;56.096;12.664;2023-09-18T01:19:39;4.65;;;2.92;;
13731;SDS011;6937;56.096;12.664;2023-09-18T01:22:07;4.45;;;2.88;;
13731;SDS011;6937;56.096;12.664;2023-09-18T01:24:35;3.47;;;2.60;;
13731;SDS011;6937;56.096;12.664;2023-09-18T01:27:02;3.90;;;2.85;;
13731;SDS011;6937;56.096;12.664;2023-09-18T01:29:31;4.25;;;2.80;;
13731;SDS011;6937;56.096;12.664;2023-09-18T01:31:56;6.20;;;3.05;;
13731;SDS011;6937;56.096;12.664;2023-09-18T01:34:25;3.78;;;2.65;;
13731;SDS011;6937;56.096;12.664;2023-09-18T01:36:53;5.90;;;2.88;;
13731;SDS011;6937;56.096;12.664;2023-09-18T01:39:22;5.70;;;3.25;;
13731;SDS011;6937;56.096;12.664;2023-09-18T01:41:48;4.13;;;2.85;;
13731;SDS011;6937;56.096;12.664;2023-09-18T01:44:13;7.05;;;3.03;;
13731;SDS011;6937;56.096;12.664;2023-09-18T01:46:39;4.85;;;2.95;;
13731;SDS011;6937;56.096;12.664;2023-09-18T01:49:05;8.85;;;3.10;;
13731;SDS011;6937;56.096;12.664;2023-09-18T01:51:31;4.78;;;2.90;;
13731;SDS011;6937;56.096;12.664;2023-09-18T01:53:56;6.53;;;3.08;;
13731;SDS011;6937;56.096;12.664;2023-09-18T01:56:23;3.60;;;2.80;;
13731;SDS011;6937;56.096;12.664;2023-09-18T01:58:49;4.47;;;3.03;;
13731;SDS011;6937;56.096;12.664;2023-09-18T02:01:14;5.93;;;2.80;;
13731;SDS011;6937;56.096;12.664;2023-09-18T02:03:40;3.67;;;2.88;;
13731;SDS011;6937;56.096;12.664;2023-09-18T02:06:06;4.15;;;2.90;;
13731;SDS011;6937;56.096;12.664;2023-09-18T02:08:31;4.57;;;3.00;;
13731;SDS011;6937;56.096;12.664;2023-09-18T02:10:56;4.70;;;2.60;;
13731;SDS011;6937;56.096;12.664;2023-09-18T02:13:22;4.43;;;3.03;;
13731;SDS011;6937;56.096;12.664;2023-09-18T02:15:47;4.32;;;2.83;;
13731;SDS011;6937;56.096;12.664;2023-09-18T02:18:12;4.22;;;2.85;;
13731;SDS011;6937;56.096;12.664;2023-09-18T02:20:41;5.88;;;3.05;;
13731;SDS011;6937;56.096;12.664;2023-09-18T02:23:09;6.15;;;3.33;;
13731;SDS011;6937;56.096;12.664;2023-09-18T02:25:34;5.53;;;3.17;;
13731;SDS011;6937;56.096;12.664;2023-09-18T02:27:59;5.18;;;3.17;;
13731;SDS011;6937;56.096;12.664;2023-09-18T02:30:25;5.13;;;3.30;;
13731;SDS011;6937;56.096;12.664;2023-09-18T02:32:50;5.80;;;3.45;;
13731;SDS011;6937;56.096;12.664;2023-09-18T02:35:15;3.92;;;2.88;;
13731;SDS011;6937;56.096;12.664;2023-09-18T02:37:41;6.30;;;3.10;;
13731;SDS011;6937;56.096;12.664;2023-09-18T02:40:06;4.75;;;2.88;;
13731;SDS011;6937;56.096;12.664;2023-09-18T02:42:33;3.80;;;2.95;;
13731;SDS011;6937;56.096;12.664;2023-09-18T02:44:58;5.55;;;3.22;;
13731;SDS011;6937;56.096;12.664;2023-09-18T02:47:23;4.63;;;2.83;;
13731;SDS011;6937;56.096;12.664;2023-09-18T02:49:49;5.28;;;2.95;;
13731;SDS011;6937;56.096;12.664;2023-09-18T02:52:14;4.82;;;3.10;;
13731;SDS011;6937;56.096;12.664;2023-09-18T02:54:39;5.60;;;3.03;;
13731;SDS011;6937;56.096;12.664;2023-09-18T02:57:05;7.47;;;3.38;;
13731;SDS011;6937;56.096;12.664;2023-09-18T02:59:30;5.70;;;2.95;;
13731;SDS011;6937;56.096;12.664;2023-09-18T03:01:56;5.75;;;3.03;;
13731;SDS011;6937;56.096;12.664;2023-09-18T03:04:21;6.35;;;3.42;;
13731;SDS011;6937;56.096;12.664;2023-09-18T03:06:46;4.05;;;2.97;;
13731;SDS011;6937;56.096;12.664;2023-09-18T03:09:12;7.22;;;3.25;;
13731;SDS011;6937;56.096;12.664;2023-09-18T03:11:37;9.18;;;3.50;;
13731;SDS011;6937;56.096;12.664;2023-09-18T03:14:02;5.03;;;3.20;;
13731;SDS011;6937;56.096;12.664;2023-09-18T03:16:28;6.35;;;3.30;;
13731;SDS011;6937;56.096;12.664;2023-09-18T03:18:56;5.90;;;3.55;;
13731;SDS011;6937;56.096;12.664;2023-09-18T03:21:22;4.82;;;3.15;;
13731;SDS011;6937;56.096;12.664;2023-09-18T03:23:47;6.97;;;3.38;;
13731;SDS011;6937;56.096;12.664;2023-09-18T03:26:12;6.47;;;3.58;;
13731;SDS011;6937;56.096;12.664;2023-09-18T03:28:37;5.95;;;3.53;;
13731;SDS011;6937;56.096;12.664;2023-09-18T03:31:03;5.22;;;3.38;;
13731;SDS011;6937;56.096;12.664;2023-09-18T03:33:30;6.63;;;3.65;;
13731;SDS011;6937;56.096;12.664;2023-09-18T03:35:55;5.68;;;3.58;;
13731;SDS011;6937;56.096;12.664;2023-09-18T03:38:23;7.05;;;3.70;;
13731;SDS011;6937;56.096;12.664;2023-09-18T03:40:49;5.28;;;3.58;;
13731;SDS011;6937;56.096;12.664;2023-09-18T03:43:15;6.35;;;3.72;;
13731;SDS011;6937;56.096;12.664;2023-09-18T03:45:40;7.03;;;4.07;;
13731;SDS011;6937;56.096;12.664;2023-09-18T03:48:06;6.65;;;3.63;;
13731;SDS011;6937;56.096;12.664;2023-09-18T03:50:31;6.65;;;3.70;;
13731;SDS011;6937;56.096;12.664;2023-09-18T03:52:57;4.70;;;3.22;;
13731;SDS011;6937;56.096;12.664;2023-09-18T03:55:22;8.73;;;3.72;;
13731;SDS011;6937;56.096;12.664;2023-09-18T03:57:48;8.30;;;4.10;;
13731;SDS011;6937;56.096;12.664;2023-09-18T04:00:13;7.38;;;3.95;;
13731;SDS011;6937;56.096;12.664;2023-09-18T04:02:39;6.18;;;4.07;;
13731;SDS011;6937;56.096;12.664;2023-09-18T04:05:04;7.22;;;4.00;;
13731;SDS011;6937;56.096;12.664;2023-09-18T04:07:30;5.40;;;3.35;;
13731;SDS011;6937;56.096;12.664;2023-09-18T04:09:56;8.65;;;3.90;;
13731;SDS011;6937;56.096;12.664;2023-09-18T04:12:22;6.72;;;4.30;;
13731;SDS011;6937;56.096;12.664;2023-09-18T04:14:47;5.68;;;3.35;;
13731;SDS011;6937;56.096;12.664;2023-09-18T04:17:12;6.07;;;3.92;;
13731;SDS011;6937;56.096;12.664;2023-09-18T04:19:38;7.10;;;3.97;;
13731;SDS011;6937;56.096;12.664;2023-09-18T04:22:04;5.82;;;3.28;;
13731;SDS011;6937;56.096;12.664;2023-09-18T04:24:29;6.07;;;3.90;;
13731;SDS011;6937;56.096;12.664;2023-09-18T04:26:55;7.35;;;3.88;;
13731;SDS011;6937;56.096;12.664;2023-09-18T04:29:20;6.72;;;4.47;;
13731;SDS011;6937;56.096;12.664;2023-09-18T04:31:46;8.00;;;4.20;;
13731;SDS011;6937;56.096;12.664;2023-09-18T04:34:12;8.60;;;4.30;;
13731;SDS011;6937;56.096;12.664;2023-09-18T04:36:37;9.38;;;4.07;;
13731;SDS011;6937;56.096;12.664;2023-09-18T04:39:04;6.70;;;3.80;;
13731;SDS011;6937;56.096;12.664;2023-09-18T04:41:30;7.47;;;3.88;;
13731;SDS011;6937;56.096;12.664;2023-09-18T04:43:55;7.18;;;4.38;;
13731;SDS011;6937;56.096;12.664;2023-09-18T04:46:21;7.00;;;3.97;;
13731;SDS011;6937;56.096;12.664;2023-09-18T04:48:46;6.43;;;3.70;;
13731;SDS011;6937;56.096;12.664;2023-09-18T04:51:12;7.15;;;4.13;;
13731;SDS011;6937;56.096;12.664;2023-09-18T04:53:37;6.90;;;4.18;;
13731;SDS011;6937;56.096;12.664;2023-09-18T04:56:03;6.30;;;3.90;;
13731;SDS011;6937;56.096;12.664;2023-09-18T04:58:29;7.63;;;4.32;;
13731;SDS011;6937;56.096;12.664;2023-09-18T05:00:54;5.80;;;3.78;;
13731;SDS011;6937;56.096;12.664;2023-09-18T05:03:20;6.85;;;4.40;;
13731;SDS011;6937;56.096;12.664;2023-09-18T05:05:46;9.02;;;4.38;;
13731;SDS011;6937;56.096;12.664;2023-09-18T05:08:12;6.28;;;4.35;;
13731;SDS011;6937;56.096;12.664;2023-09-18T05:10:37;7.25;;;4.22;;
13731;SDS011;6937;56.096;12.664;2023-09-18T05:13:03;9.20;;;5.22;;
13731;SDS011;6937;56.096;12.664;2023-09-18T05:15:29;7.93;;;4.50;;
13731;SDS011;6937;56.096;12.664;2023-09-18T05:17:55;6.53;;;4.78;;
13731;SDS011;6937;56.096;12.664;2023-09-18T05:20:23;8.45;;;5.05;;
13731;SDS011;6937;56.096;12.664;2023-09-18T05:22:50;6.70;;;4.70;;
13731;SDS011;6937;56.096;12.664;2023-09-18T05:25:18;7.80;;;4.72;;
13731;SDS011;6937;56.096;12.664;2023-09-18T05:27:44;8.15;;;4.78;;
13731;SDS011;6937;56.096;12.664;2023-09-18T05:30:13;8.30;;;4.90;;
13731;SDS011;6937;56.096;12.664;2023-09-18T05:32:41;10.93;;;4.90;;
13731;SDS011;6937;56.096;12.664;2023-09-18T05:35:08;7.40;;;4.72;;
13731;SDS011;6937;56.096;12.664;2023-09-18T05:37:36;7.25;;;4.65;;
13731;SDS011;6937;56.096;12.664;2023-09-18T05:40:04;7.97;;;5.13;;
13731;SDS011;6937;56.096;12.664;2023-09-18T05:42:32;8.73;;;4.88;;
13731;SDS011;6937;56.096;12.664;2023-09-18T05:44:57;8.75;;;4.68;;
13731;SDS011;6937;56.096;12.664;2023-09-18T05:47:23;8.05;;;5.30;;
13731;SDS011;6937;56.096;12.664;2023-09-18T05:49:48;8.00;;;5.15;;
13731;SDS011;6937;56.096;12.664;2023-09-18T05:52:14;10.38;;;5.32;;
13731;SDS011;6937;56.096;12.664;2023-09-18T05:54:39;6.07;;;4.72;;
13731;SDS011;6937;56.096;12.664;2023-09-18T05:57:05;9.30;;;5.18;;
13731;SDS011;6937;56.096;12.664;2023-09-18T05:59:32;6.88;;;4.72;;
13731;SDS011;6937;56.096;12.664;2023-09-18T06:01:57;6.72;;;4.53;;
13731;SDS011;6937;56.096;12.664;2023-09-18T06:04:22;6.88;;;4.80;;
13731;SDS011;6937;56.096;12.664;2023-09-18T06:06:48;6.78;;;5.28;;
13731;SDS011;6937;56.096;12.664;2023-09-18T06:09:14;9.07;;;5.32;;
13731;SDS011;6937;56.096;12.664;2023-09-18T06:11:39;5.95;;;4.78;;
13731;SDS011;6937;56.096;12.664;2023-09-18T06:14:04;8.73;;;4.68;;
13731;SDS011;6937;56.096;12.664;2023-09-18T06:16:30;7.30;;;5.50;;
13731;SDS011;6937;56.096;12.664;2023-09-18T06:18:56;7.63;;;4.90;;
13731;SDS011;6937;56.096;12.664;2023-09-18T06:21:21;8.32;;;5.32;;
13731;SDS011;6937;56.096;12.664;2023-09-18T06:23:47;8.23;;;5.70;;
13731;SDS011;6937;56.096;12.664;2023-09-18T06:26:12;9.38;;;5.95;;
13731;SDS011;6937;56.096;12.664;2023-09-18T06:28:38;8.27;;;5.88;;
13731;SDS011;6937;56.096;12.664;2023-09-18T06:31:04;9.63;;;6.18;;
13731;SDS011;6937;56.096;12.664;2023-09-18T06:33:29;13.35;;;5.30;;
13731;SDS011;6937;56.096;12.664;2023-09-18T06:35:55;9.38;;;6.20;;
13731;SDS011;6937;56.096;12.664;2023-09-18T06:38:20;7.30;;;5.05;;
13731;SDS011;6937;56.096;12.664;2023-09-18T06:40:46;9.02;;;6.45;;
13731;SDS011;6937;56.096;12.664;2023-09-18T06:43:11;8.20;;;5.63;;
13731;SDS011;6937;56.096;12.664;2023-09-18T06:45:37;9.63;;;6.38;;
13731;SDS011;6937;56.096;12.664;2023-09-18T06:48:03;8.40;;;5.75;;
13731;SDS011;6937;56.096;12.664;2023-09-18T06:50:29;6.97;;;5.20;;
13731;SDS011;6937;56.096;12.664;2023-09-18T06:52:55;7.50;;;6.10;;
13731;SDS011;6937;56.096;12.664;2023-09-18T06:55:21;6.70;;;5.57;;
13731;SDS011;6937;56.096;12.664;2023-09-18T06:57:46;9.55;;;6.15;;
13731;SDS011;6937;56.096;12.664;2023-09-18T07:00:13;9.52;;;7.00;;
13731;SDS011;6937;56.096;12.664;2023-09-18T07:02:40;8.35;;;6.25;;
13731;SDS011;6937;56.096;12.664;2023-09-18T07:05:05;6.95;;;6.03;;
13731;SDS011;6937;56.096;12.664;2023-09-18T07:07:31;11.10;;;6.72;;
13731;SDS011;6937;56.096;12.664;2023-09-18T07:09:57;7.78;;;5.60;;
13731;SDS011;6937;56.096;12.664;2023-09-18T07:12:22;7.35;;;6.28;;
13731;SDS011;6937;56.096;12.664;2023-09-18T07:14:48;7.97;;;6.60;;
13731;SDS011;6937;56.096;12.664;2023-09-18T07:17:13;10.77;;;6.82;;
13731;SDS011;6937;56.096;12.664;2023-09-18T07:19:39;8.20;;;6.82;;
13731;SDS011;6937;56.096;12.664;2023-09-18T07:22:04;8.60;;;6.72;;
13731;SDS011;6937;56.096;12.664;2023-09-18T07:24:30;10.55;;;6.85;;
13731;SDS011;6937;56.096;12.664;2023-09-18T07:26:55;10.35;;;6.78;;
13731;SDS011;6937;56.096;12.664;2023-09-18T07:29:23;8.18;;;6.07;;
13731;SDS011;6937;56.096;12.664;2023-09-18T07:31:50;7.53;;;6.15;;
13731;SDS011;6937;56.096;12.664;2023-09-18T07:34:16;7.70;;;6.20;;
13731;SDS011;6937;56.096;12.664;2023-09-18T07:36:42;8.02;;;6.78;;
13731;SDS011;6937;56.096;12.664;2023-09-18T07:39:09;9.02;;;6.28;;
13731;SDS011;6937;56.096;12.664;2023-09-18T07:41:34;10.57;;;6.47;;
13731;SDS011;6937;56.096;12.664;2023-09-18T07:43:59;9.18;;;6.05;;
13731;SDS011;6937;56.096;12.664;2023-09-18T07:46:25;8.18;;;6.30;;
13731;SDS011;6937;56.096;12.664;2023-09-18T07:48:51;8.25;;;6.03;;
13731;SDS011;6937;56.096;12.664;2023-09-18T07:51:16;7.95;;;6.03;;
13731;SDS011;6937;56.096;12.664;2023-09-18T07:53:42;7.47;;;5.82;;
13731;SDS011;6937;56.096;12.664;2023-09-18T07:56:07;9.63;;;5.97;;
13731;SDS011;6937;56.096;12.664;2023-09-18T07:58:33;8.23;;;6.40;;
13731;SDS011;6937;56.096;12.664;2023-09-18T08:01:03;9.10;;;5.82;;
13731;SDS011;6937;56.096;12.664;2023-09-18T08:03:30;8.45;;;6.07;;
13731;SDS011;6937;56.096;12.664;2023-09-18T08:05:55;8.50;;;5.78;;
13731;SDS011;6937;56.096;12.664;2023-09-18T08:08:21;8.20;;;6.07;;
13731;SDS011;6937;56.096;12.664;2023-09-18T08:10:50;6.10;;;5.50;;
13731;SDS011;6937;56.096;12.664;2023-09-18T08:13:16;8.82;;;6.00;;
13731;SDS011;6937;56.096;12.664;2023-09-18T08:15:42;6.40;;;5.70;;
13731;SDS011;6937;56.096;12.664;2023-09-18T08:18:08;7.85;;;5.97;;
13731;SDS011;6937;56.096;12.664;2023-09-18T08:20:35;7.40;;;5.88;;
13731;SDS011;6937;56.096;12.664;2023-09-18T08:23:02;8.27;;;5.78;;
13731;SDS011;6937;56.096;12.664;2023-09-18T08:25:30;9.77;;;6.35;;
13731;SDS011;6937;56.096;12.664;2023-09-18T08:27:55;7.70;;;5.35;;
13731;SDS011;6937;56.096;12.664;2023-09-18T08:30:21;8.73;;;6.28;;
13731;SDS011;6937;56.096;12.664;2023-09-18T08:32:46;7.50;;;5.65;;
13731;SDS011;6937;56.096;12.664;2023-09-18T08:35:12;8.45;;;5.72;;
13731;SDS011;6937;56.096;12.664;2023-09-18T08:37:39;8.77;;;6.50;;
13731;SDS011;6937;56.096;12.664;2023-09-18T08:40:05;10.20;;;6.18;;
13731;SDS011;6937;56.096;12.664;2023-09-18T08:42:35;8.35;;;6.00;;
13731;SDS011;6937;56.096;12.664;2023-09-18T08:45:04;7.65;;;6.35;;
13731;SDS011;6937;56.096;12.664;2023-09-18T08:47:34;9.98;;;6.70;;
13731;SDS011;6937;56.096;12.664;2023-09-18T08:50:00;8.50;;;6.35;;
13731;SDS011;6937;56.096;12.664;2023-09-18T08:52:26;8.27;;;6.38;;
13731;SDS011;6937;56.096;12.664;2023-09-18T08:54:52;10.65;;;6.70;;
13731;SDS011;6937;56.096;12.664;2023-09-18T08:57:19;9.35;;;6.65;;
13731;SDS011;6937;56.096;12.664;2023-09-18T08:59:44;6.70;;;5.93;;
13731;SDS011;6937;56.096;12.664;2023-09-18T09:02:13;8.68;;;6.03;;
13731;SDS011;6937;56.096;12.664;2023-09-18T09:04:39;8.45;;;6.47;;
13731;SDS011;6937;56.096;12.664;2023-09-18T09:07:05;11.40;;;6.95;;
13731;SDS011;6937;56.096;12.664;2023-09-18T09:09:30;8.82;;;6.55;;
13731;SDS011;6937;56.096;12.664;2023-09-18T09:11:56;8.98;;;6.22;;
13731;SDS011;6937;56.096;12.664;2023-09-18T09:14:21;7.30;;;6.40;;
13731;SDS011;6937;56.096;12.664;2023-09-18T09:16:52;8.70;;;6.28;;
13731;SDS011;6937;56.096;12.664;2023-09-18T09:19:27;9.75;;;6.40;;
13731;SDS011;6937;56.096;12.664;2023-09-18T09:22:04;8.60;;;7.07;;
13731;SDS011;6937;56.096;12.664;2023-09-18T09:25:03;7.05;;;6.10;;
13731;SDS011;6937;56.096;12.664;2023-09-18T09:27:21;7.70;;;6.82;;
13731;SDS011;6937;56.096;12.664;2023-09-18T09:29:59;7.60;;;6.80;;
13731;SDS011;6937;56.096;12.664;2023-09-18T09:32:26;11.07;;;6.68;;
13731;SDS011;6937;56.096;12.664;2023-09-18T09:34:59;9.25;;;6.60;;
13731;SDS011;6937;56.096;12.664;2023-09-18T09:37:31;7.32;;;6.60;;
13731;SDS011;6937;56.096;12.664;2023-09-18T09:39:57;8.30;;;7.03;;
13731;SDS011;6937;56.096;12.664;2023-09-18T09:42:38;9.32;;;6.40;;
13731;SDS011;6937;56.096;12.664;2023-09-18T09:45:04;9.52;;;7.03;;
13731;SDS011;6937;56.096;12.664;2023-09-18T09:47:37;9.40;;;6.65;;
13731;SDS011;6937;56.096;12.664;2023-09-18T09:50:09;9.68;;;6.40;;
13731;SDS011;6937;56.096;12.664;2023-09-18T09:52:48;8.63;;;6.70;;
13731;SDS011;6937;56.096;12.664;2023-09-18T09:55:18;6.47;;;5.80;;
13731;SDS011;6937;56.096;12.664;2023-09-18T09:57:53;8.88;;;6.40;;
13731;SDS011;6937;56.096;12.664;2023-09-18T10:00:31;6.75;;;6.03;;
13731;SDS011;6937;56.096;12.664;2023-09-18T10:03:02;6.30;;;5.70;;
13731;SDS011;6937;56.096;12.664;2023-09-18T10:05:33;7.40;;;6.70;;
13731;SDS011;6937;56.096;12.664;2023-09-18T10:08:06;8.25;;;6.38;;
13731;SDS011;6937;56.096;12.664;2023-09-18T10:10:48;6.50;;;5.65;;
13731;SDS011;6937;56.096;12.664;2023-09-18T10:13:16;10.43;;;6.80;;
13731;SDS011;6937;56.096;12.664;2023-09-18T10:15:44;7.00;;;6.18;;
13731;SDS011;6937;56.096;12.664;2023-09-18T10:18:18;6.88;;;6.18;;
13731;SDS011;6937;56.096;12.664;2023-09-18T10:20:51;8.00;;;6.13;;
13731;SDS011;6937;56.096;12.664;2023-09-18T10:24:13;8.68;;;5.93;;
13731;SDS011;6937;56.096;12.664;2023-09-18T10:26:18;9.40;;;6.05;;
13731;SDS011;6937;56.096;12.664;2023-09-18T10:28:56;8.38;;;5.60;;
13731;SDS011;6937;56.096;12.664;2023-09-18T10:31:27;6.93;;;5.80;;
13731;SDS011;6937;56.096;12.664;2023-09-18T10:33:54;7.78;;;5.85;;
13731;SDS011;6937;56.096;12.664;2023-09-18T10:36:22;6.30;;;5.65;;
13731;SDS011;6937;56.096;12.664;2023-09-18T10:38:50;7.47;;;6.53;;
13731;SDS011;6937;56.096;12.664;2023-09-18T10:41:19;6.82;;;5.50;;
13731;SDS011;6937;56.096;12.664;2023-09-18T10:43:45;7.47;;;5.93;;
13731;SDS011;6937;56.096;12.664;2023-09-18T10:46:13;7.68;;;5.80;;
13731;SDS011;6937;56.096;12.664;2023-09-18T10:48:40;6.60;;;5.97;;
13731;SDS011;6937;56.096;12.664;2023-09-18T10:51:07;8.57;;;5.88;;
13731;SDS011;6937;56.096;12.664;2023-09-18T10:53:33;7.43;;;5.97;;
13731;SDS011;6937;56.096;12.664;2023-09-18T10:56:00;7.97;;;5.72;;
13731;SDS011;6937;56.096;12.664;2023-09-18T10:58:32;8.13;;;5.90;;
13731;SDS011;6937;56.096;12.664;2023-09-18T11:01:00;7.68;;;6.00;;
13731;SDS011;6937;56.096;12.664;2023-09-18T11:03:27;7.03;;;6.00;;
13731;SDS011;6937;56.096;12.664;2023-09-18T11:06:03;7.38;;;5.85;;
13731;SDS011;6937;56.096;12.664;2023-09-18T11:08:50;6.97;;;5.80;;
13731;SDS011;6937;56.096;12.664;2023-09-18T11:11:18;6.15;;;5.28;;
13731;SDS011;6937;56.096;12.664;2023-09-18T11:13:51;11.23;;;6.07;;
13731;SDS011;6937;56.096;12.664;2023-09-18T11:21:29;10.00;;;6.22;;
13731;SDS011;6937;56.096;12.664;2023-09-18T11:23:57;8.18;;;5.90;;
13731;SDS011;6937;56.096;12.664;2023-09-18T11:26:32;10.10;;;6.40;;
13731;SDS011;6937;56.096;12.664;2023-09-18T11:28:59;7.25;;;6.10;;
13731;SDS011;6937;56.096;12.664;2023-09-18T11:36:51;6.70;;;6.00;;
13731;SDS011;6937;56.096;12.664;2023-09-18T11:39:33;9.25;;;6.55;;
13731;SDS011;6937;56.096;12.664;2023-09-18T11:42:12;7.30;;;6.57;;
13731;SDS011;6937;56.096;12.664;2023-09-18T11:44:39;6.82;;;5.63;;
13731;SDS011;6937;56.096;12.664;2023-09-18T11:47:12;11.20;;;5.75;;
13731;SDS011;6937;56.096;12.664;2023-09-18T11:49:47;5.88;;;5.32;;
13731;SDS011;6937;56.096;12.664;2023-09-18T11:52:32;7.25;;;5.70;;
13731;SDS011;6937;56.096;12.664;2023-09-18T11:55:00;6.72;;;5.55;;
13731;SDS011;6937;56.096;12.664;2023-09-18T11:57:26;7.07;;;5.60;;
13731;SDS011;6937;56.096;12.664;2023-09-18T11:59:53;7.45;;;5.70;;
13731;SDS011;6937;56.096;12.664;2023-09-18T12:02:27;6.82;;;5.30;;
13731;SDS011;6937;56.096;12.664;2023-09-18T12:05:19;6.95;;;6.10;;
13731;SDS011;6937;56.096;12.664;2023-09-18T12:07:45;7.35;;;5.38;;
13731;SDS011;6937;56.096;12.664;2023-09-18T12:10:12;6.47;;;5.32;;
13731;SDS011;6937;56.096;12.664;2023-09-18T12:12:39;6.75;;;5.15;;
13731;SDS011;6937;56.096;12.664;2023-09-18T12:15:07;7.57;;;5.70;;
13731;SDS011;6937;56.096;12.664;2023-09-18T12:17:35;8.52;;;5.80;;
13731;SDS011;6937;56.096;12.664;2023-09-18T12:20:01;6.80;;;5.18;;
13731;SDS011;6937;56.096;12.664;2023-09-18T12:22:29;6.75;;;5.63;;
13731;SDS011;6937;56.096;12.664;2023-09-18T12:25:09;8.15;;;5.50;;
13731;SDS011;6937;56.096;12.664;2023-09-18T12:27:39;7.88;;;6.00;;
13731;SDS011;6937;56.096;12.664;2023-09-18T12:30:05;7.18;;;5.15;;
13731;SDS011;6937;56.096;12.664;2023-09-18T12:32:31;5.95;;;5.35;;
13731;SDS011;6937;56.096;12.664;2023-09-18T12:34:57;9.07;;;5.60;;
13731;SDS011;6937;56.096;12.664;2023-09-18T12:37:23;9.30;;;5.65;;
13731;SDS011;6937;56.096;12.664;2023-09-18T12:39:49;5.90;;;5.32;;
13731;SDS011;6937;56.096;12.664;2023-09-18T12:42:17;6.20;;;5.18;;
13731;SDS011;6937;56.096;12.664;2023-09-18T12:44:45;6.95;;;5.50;;
13731;SDS011;6937;56.096;12.664;2023-09-18T12:47:12;7.80;;;5.38;;
13731;SDS011;6937;56.096;12.664;2023-09-18T12:49:37;9.88;;;5.70;;
13731;SDS011;6937;56.096;12.664;2023-09-18T12:52:04;6.60;;;5.35;;
13731;SDS011;6937;56.096;12.664;2023-09-18T12:54:36;7.75;;;5.20;;
13731;SDS011;6937;56.096;12.664;2023-09-18T12:57:04;7.32;;;5.32;;
13731;SDS011;6937;56.096;12.664;2023-09-18T12:59:31;5.18;;;4.55;;
13731;SDS011;6937;56.096;12.664;2023-09-18T13:01:58;5.75;;;5.00;;
13731;SDS011;6937;56.096;12.664;2023-09-18T13:04:23;9.85;;;5.22;;
13731;SDS011;6937;56.096;12.664;2023-09-18T13:07:02;8.15;;;5.18;;
13731;SDS011;6937;56.096;12.664;2023-09-18T13:10:05;9.30;;;4.53;;
13731;SDS011;6937;56.096;12.664;2023-09-18T13:12:50;5.05;;;4.20;;
13731;SDS011;6937;56.096;12.664;2023-09-18T13:15:32;5.22;;;3.97;;
13731;SDS011;6937;56.096;12.664;2023-09-18T13:17:59;5.03;;;4.20;;
13731;SDS011;6937;56.096;12.664;2023-09-18T13:20:26;4.57;;;4.07;;
13731;SDS011;6937;56.096;12.664;2023-09-18T13:22:57;5.30;;;4.18;;
13731;SDS011;6937;56.096;12.664;2023-09-18T13:25:27;6.78;;;4.55;;
13731;SDS011;6937;56.096;12.664;2023-09-18T13:27:54;5.35;;;4.15;;
13731;SDS011;6937;56.096;12.664;2023-09-18T13:30:20;5.35;;;4.30;;
13731;SDS011;6937;56.096;12.664;2023-09-18T13:32:47;4.53;;;3.97;;
13731;SDS011;6937;56.096;12.664;2023-09-18T13:35:17;6.90;;;3.90;;
13731;SDS011;6937;56.096;12.664;2023-09-18T13:37:43;6.18;;;4.10;;
13731;SDS011;6937;56.096;12.664;2023-09-18T13:40:09;5.80;;;4.20;;
13731;SDS011;6937;56.096;12.664;2023-09-18T13:42:36;6.65;;;4.35;;
13731;SDS011;6937;56.096;12.664;2023-09-18T13:45:02;5.13;;;3.97;;
13731;SDS011;6937;56.096;12.664;2023-09-18T13:47:32;8.95;;;4.43;;
13731;SDS011;6937;56.096;12.664;2023-09-18T13:50:00;5.00;;;3.80;;
13731;SDS011;6937;56.096;12.664;2023-09-18T13:52:30;6.88;;;4.18;;
13731;SDS011;6937;56.096;12.664;2023-09-18T13:54:56;5.25;;;4.40;;
13731;SDS011;6937;56.096;12.664;2023-09-18T13:57:22;4.03;;;3.67;;
13731;SDS011;6937;56.096;12.664;2023-09-18T13:59:49;4.45;;;4.03;;
13731;SDS011;6937;56.096;12.664;2023-09-18T14:02:15;6.30;;;4.32;;
13731;SDS011;6937;56.096;12.664;2023-09-18T14:04:42;7.60;;;4.80;;
13731;SDS011;6937;56.096;12.664;2023-09-18T14:07:07;6.88;;;4.25;;
13731;SDS011;6937;56.096;12.664;2023-09-18T14:09:34;6.20;;;4.05;;
13731;SDS011;6937;56.096;12.664;2023-09-18T14:12:00;6.10;;;4.05;;
13731;SDS011;6937;56.096;12.664;2023-09-18T14:14:26;4.97;;;4.32;;
13731;SDS011;6937;56.096;12.664;2023-09-18T14:16:51;4.20;;;3.90;;
13731;SDS011;6937;56.096;12.664;2023-09-18T14:19:17;5.22;;;4.25;;
13731;SDS011;6937;56.096;12.664;2023-09-18T14:21:43;9.05;;;4.30;;
13731;SDS011;6937;56.096;12.664;2023-09-18T14:24:08;4.65;;;4.20;;
13731;SDS011;6937;56.096;12.664;2023-09-18T14:26:34;6.35;;;4.40;;
13731;SDS011;6937;56.096;12.664;2023-09-18T14:29:08;8.10;;;4.18;;
13731;SDS011;6937;56.096;12.664;2023-09-18T14:31:36;6.20;;;4.15;;
13731;SDS011;6937;56.096;12.664;2023-09-18T14:34:02;4.25;;;3.78;;
13731;SDS011;6937;56.096;12.664;2023-09-18T14:36:29;4.97;;;3.90;;
13731;SDS011;6937;56.096;12.664;2023-09-18T14:38:55;5.70;;;3.92;;
13731;SDS011;6937;56.096;12.664;2023-09-18T14:41:22;7.47;;;4.40;;
13731;SDS011;6937;56.096;12.664;2023-09-18T14:43:49;4.63;;;4.22;;
13731;SDS011;6937;56.096;12.664;2023-09-18T14:46:15;5.03;;;4.57;;
13731;SDS011;6937;56.096;12.664;2023-09-18T14:48:40;5.30;;;4.20;;
13731;SDS011;6937;56.096;12.664;2023-09-18T14:51:06;5.38;;;4.20;;
13731;SDS011;6937;56.096;12.664;2023-09-18T14:53:32;5.70;;;4.75;;
13731;SDS011;6937;56.096;12.664;2023-09-18T14:55:57;7.53;;;5.25;;
13731;SDS011;6937;56.096;12.664;2023-09-18T14:58:23;4.60;;;4.07;;
13731;SDS011;6937;56.096;12.664;2023-09-18T15:00:49;4.88;;;4.38;;